createdAt,value
2024-01-11T00:02:02.270Z,10.25
2024-01-11T00:04:28.742Z,11.10
2024-01-11T00:06:55.412Z,13.68
2024-01-11T00:09:21.937Z,10.07
2024-01-11T00:11:48.387Z,12.15
2024-01-11T00:14:14.873Z,11.73
2024-01-11T00:16:42.353Z,9.93
2024-01-11T00:19:08.862Z,10.90
2024-01-11T00:21:36.708Z,11.30
2024-01-11T00:24:04.320Z,8.95
2024-01-11T00:26:30.898Z,19.58
2024-01-11T00:28:57.352Z,9.10
2024-01-11T00:31:23.804Z,11.57
2024-01-11T00:33:50.286Z,8.82
2024-01-11T00:36:21.219Z,10.60
2024-01-11T00:38:47.665Z,10.05
2024-01-11T00:41:14.135Z,13.13
2024-01-11T00:43:40.658Z,10.18
2024-01-11T00:46:07.056Z,9.88
2024-01-11T00:48:33.563Z,8.88
2024-01-11T00:51:00.066Z,13.35
2024-01-11T00:53:31.592Z,15.25
2024-01-11T00:55:58.681Z,11.45
2024-01-11T00:58:25.137Z,13.32
2024-01-11T01:00:53.682Z,12.13
2024-01-11T01:03:22.182Z,11.02
2024-01-11T01:05:48.809Z,14.48
2024-01-11T01:10:42.234Z,8.43
2024-01-11T01:13:08.731Z,10.95
2024-01-11T01:15:35.221Z,12.27
2024-01-11T01:18:01.885Z,12.48
2024-01-11T01:20:28.771Z,11.75
2024-01-11T01:22:55.436Z,10.27
2024-01-11T01:25:22.101Z,13.65
2024-01-11T01:27:49.252Z,10.55
2024-01-11T01:30:15.777Z,14.23
2024-01-11T01:32:42.552Z,15.60
2024-01-11T01:35:09.292Z,9.38
2024-01-11T01:37:35.854Z,10.68
2024-01-11T01:40:02.341Z,12.57
2024-01-11T01:42:28.816Z,10.98
2024-01-11T01:44:55.288Z,10.38
2024-01-11T01:47:23.286Z,11.90
2024-01-11T01:49:50.750Z,13.82
2024-01-11T01:52:18.058Z,11.52
2024-01-11T01:54:44.674Z,14.93
2024-01-11T01:57:12.896Z,12.48
2024-01-11T01:59:40.766Z,10.68
2024-01-11T02:02:07.734Z,14.10
2024-01-11T02:04:34.625Z,11.07
2024-01-11T02:07:01.797Z,12.13
2024-01-11T02:09:29.291Z,13.90
2024-01-11T02:11:55.933Z,13.20
2024-01-11T02:14:22.431Z,9.68
2024-01-11T02:16:48.884Z,12.65
2024-01-11T02:19:18.606Z,11.15
2024-01-11T02:21:47.183Z,10.25
2024-01-11T02:24:14.280Z,12.27
2024-01-11T02:27:00.368Z,14.45
2024-01-11T02:29:27.951Z,13.35
2024-01-11T02:31:55.742Z,12.80
2024-01-11T02:34:23.619Z,11.00
2024-01-11T02:36:50.806Z,15.68
2024-01-11T02:39:18.727Z,12.90
2024-01-11T02:41:45.753Z,13.05
2024-01-11T02:44:12.339Z,13.90
2024-01-11T02:46:38.852Z,11.85
2024-01-11T02:49:05.432Z,14.35
2024-01-11T02:51:31.964Z,14.48
2024-01-11T02:53:59.030Z,11.63
2024-01-11T02:56:25.804Z,13.73
2024-01-11T03:01:18.694Z,13.30
2024-01-11T03:03:45.242Z,17.77
2024-01-11T03:06:11.752Z,17.38
2024-01-11T03:08:38.373Z,14.35
2024-01-11T03:11:05.274Z,14.95
2024-01-11T03:13:32.420Z,14.30
2024-01-11T03:15:58.852Z,16.00
2024-01-11T03:18:25.392Z,14.38
2024-01-11T03:20:52.368Z,16.63
2024-01-11T03:23:18.864Z,21.65
2024-01-11T03:25:45.344Z,16.75
2024-01-11T03:28:11.866Z,17.10
2024-01-11T03:30:38.369Z,15.00
2024-01-11T03:33:05.489Z,17.23
2024-01-11T03:35:32.160Z,15.88
2024-01-11T03:37:58.706Z,17.20
2024-01-11T03:40:25.133Z,17.15
2024-01-11T03:42:53.584Z,15.15
2024-01-11T03:45:22.630Z,20.45
2024-01-11T03:47:49.095Z,23.20
2024-01-11T03:50:15.674Z,19.25
2024-01-11T03:52:43.564Z,20.27
2024-01-11T03:55:10.060Z,16.75
2024-01-11T03:57:36.689Z,21.10
2024-01-11T04:00:03.562Z,21.00
2024-01-11T04:02:30.518Z,20.20
2024-01-11T04:04:57.112Z,17.83
2024-01-11T04:07:23.610Z,24.23
2024-01-11T04:09:50.036Z,20.98
2024-01-11T04:12:16.556Z,20.25
2024-01-11T04:14:43.163Z,20.75
2024-01-11T04:17:09.786Z,19.33
2024-01-11T04:19:36.335Z,19.60
2024-01-11T04:22:02.773Z,25.85
2024-01-11T04:24:29.243Z,22.30
2024-01-11T04:26:55.739Z,21.00
2024-01-11T04:29:22.348Z,23.50
2024-01-11T04:31:48.888Z,23.52
2024-01-11T04:34:15.712Z,21.58
2024-01-11T04:39:08.753Z,19.80
2024-01-11T04:41:38.114Z,27.17
2024-01-11T04:44:04.969Z,21.58
2024-01-11T04:48:57.869Z,22.40
2024-01-11T04:51:24.460Z,24.90
2024-01-11T04:53:50.878Z,22.08
2024-01-11T04:56:18.135Z,25.65
2024-01-11T04:58:46.310Z,19.30
2024-01-11T05:01:14.571Z,23.00
2024-01-11T05:03:41.387Z,23.50
2024-01-11T05:08:34.735Z,18.58
2024-01-11T05:11:01.347Z,24.73
2024-01-11T05:13:27.802Z,24.20
2024-01-11T05:15:54.251Z,23.67
2024-01-11T05:18:20.797Z,24.77
2024-01-11T05:20:47.365Z,24.17
2024-01-11T05:23:13.875Z,29.00
2024-01-11T05:25:40.495Z,26.83
2024-01-11T05:28:06.982Z,25.75
2024-01-11T05:30:34.307Z,24.05
2024-01-11T05:33:01.081Z,24.88
2024-01-11T05:37:58.466Z,24.58
2024-01-11T05:40:24.973Z,22.27
2024-01-11T05:42:51.429Z,27.83
2024-01-11T05:45:19.702Z,22.30
2024-01-11T05:47:49.004Z,28.33
2024-01-11T05:50:16.019Z,24.75
2024-01-11T05:52:43.421Z,27.35
2024-01-11T05:55:09.881Z,26.13
2024-01-11T05:57:36.520Z,25.42
2024-01-11T06:00:03.620Z,26.33
2024-01-11T06:02:30.143Z,31.42
2024-01-11T06:04:56.617Z,26.05
2024-01-11T06:07:23.145Z,26.25
2024-01-11T06:09:49.587Z,29.10
2024-01-11T06:12:16.408Z,27.60
2024-01-11T06:17:12.111Z,24.48
2024-01-11T06:19:39.594Z,25.33
2024-01-11T06:22:06.613Z,25.70
2024-01-11T06:26:59.401Z,24.98
2024-01-11T06:29:25.848Z,23.92
2024-01-11T06:31:52.711Z,26.00
2024-01-11T06:36:45.547Z,22.88
2024-01-11T06:39:13.628Z,26.55
2024-01-11T06:41:40.211Z,23.75
2024-01-11T06:44:06.747Z,27.90
2024-01-11T06:46:33.264Z,35.00
2024-01-11T06:48:59.819Z,27.35
2024-01-11T06:51:26.344Z,22.27
2024-01-11T06:53:52.812Z,25.75
2024-01-11T06:56:21.074Z,29.70
2024-01-11T06:58:48.026Z,28.98
2024-01-11T07:01:14.651Z,29.13
2024-01-11T07:03:41.210Z,31.38
2024-01-11T07:06:08.432Z,25.85
2024-01-11T07:08:35.996Z,28.77
2024-01-11T07:11:08.559Z,26.25
2024-01-11T07:13:35.025Z,26.48
2024-01-11T07:16:01.580Z,31.45
2024-01-11T07:18:28.217Z,29.30
2024-01-11T07:20:57.956Z,25.30
2024-01-11T07:23:24.417Z,30.38
2024-01-11T07:25:51.069Z,28.02
2024-01-11T07:28:18.450Z,22.75
2024-01-11T07:30:45.231Z,29.10
2024-01-11T07:35:38.518Z,22.45
2024-01-11T07:38:05.311Z,23.77
2024-01-11T07:43:02.492Z,29.05
2024-01-11T07:45:29.222Z,21.63
2024-01-11T07:47:55.700Z,24.25
2024-01-11T07:50:22.223Z,26.48
2024-01-11T07:52:48.735Z,25.02
2024-01-11T07:55:16.413Z,25.40
2024-01-11T07:57:43.026Z,30.88
2024-01-11T08:00:09.976Z,28.55
2024-01-11T08:05:04.045Z,25.10
2024-01-11T08:07:31.336Z,27.27
2024-01-11T08:09:57.777Z,29.17
2024-01-11T08:12:24.286Z,29.15
2024-01-11T08:14:50.803Z,25.90
2024-01-11T08:17:17.253Z,26.92
2024-01-11T08:19:43.918Z,25.08
2024-01-11T08:22:12.467Z,29.00
2024-01-11T08:24:39.493Z,31.45
2024-01-11T08:27:06.826Z,33.65
2024-01-11T08:29:34.240Z,28.50
2024-01-11T08:32:02.681Z,26.58
2024-01-11T08:34:32.958Z,29.73
2024-01-11T08:39:27.405Z,26.13
2024-01-11T08:41:53.884Z,29.20
2024-01-11T08:44:20.299Z,28.33
2024-01-11T08:46:46.753Z,33.20
2024-01-11T08:49:13.248Z,30.65
2024-01-11T08:51:39.790Z,29.13
2024-01-11T08:54:09.875Z,25.15
2024-01-11T08:56:41.212Z,26.52
2024-01-11T08:59:09.603Z,25.65
2024-01-11T09:01:37.024Z,29.80
2024-01-11T09:04:03.484Z,26.48
2024-01-11T09:06:30.597Z,28.75
2024-01-11T09:08:57.224Z,33.40
2024-01-11T09:11:23.681Z,27.33
2024-01-11T09:13:50.214Z,32.90
2024-01-11T09:16:17.924Z,30.65
2024-01-11T09:18:45.810Z,27.63
2024-01-11T09:21:13.372Z,24.48
2024-01-11T09:23:40.058Z,21.67
2024-01-11T09:28:32.982Z,24.63
2024-01-11T09:31:01.162Z,24.95
2024-01-11T09:33:27.930Z,24.95
2024-01-11T09:38:21.730Z,20.10
2024-01-11T09:41:00.932Z,23.83
2024-01-11T09:43:28.011Z,23.75
2024-01-11T09:45:55.638Z,24.17
2024-01-11T09:48:22.580Z,26.73
2024-01-11T09:50:50.546Z,21.67
2024-01-11T09:53:18.932Z,27.30
2024-01-11T09:55:45.445Z,23.75
2024-01-11T09:58:12.745Z,24.70
2024-01-11T10:00:57.742Z,24.25
2024-01-11T10:03:24.912Z,24.58
2024-01-11T10:05:54.831Z,24.40
2024-01-11T10:08:22.847Z,24.33
2024-01-11T10:10:49.428Z,24.88
2024-01-11T10:13:17.295Z,29.13
2024-01-11T10:15:44.934Z,22.83
2024-01-11T10:18:14.437Z,21.77
2024-01-11T10:20:41.146Z,23.60
2024-01-11T10:25:34.429Z,23.05
2024-01-11T10:28:00.886Z,23.48
2024-01-11T10:30:27.687Z,20.95
2024-01-11T10:32:58.340Z,22.33
2024-01-11T10:35:26.075Z,20.33
2024-01-11T10:37:55.344Z,24.50
2024-01-11T10:40:25.283Z,22.38
2024-01-11T10:42:52.887Z,23.65
2024-01-11T10:45:21.765Z,27.65
2024-01-11T10:47:54.493Z,26.70
2024-01-11T10:50:23.816Z,23.95
2024-01-11T10:53:03.799Z,26.85
2024-01-11T10:55:33.761Z,24.35
2024-01-11T10:58:02.605Z,23.48
2024-01-11T11:00:31.057Z,28.48
2024-01-11T11:03:01.077Z,23.80
2024-01-11T11:05:30.045Z,27.40
2024-01-11T11:07:56.901Z,25.83
2024-01-11T11:10:25.053Z,27.38
2024-01-11T11:12:54.924Z,26.98
2024-01-11T11:15:22.784Z,26.10
2024-01-11T11:17:51.387Z,20.35
2024-01-11T11:20:18.128Z,25.17
2024-01-11T11:23:03.638Z,25.40
2024-01-11T11:25:31.363Z,24.27
2024-01-11T11:28:01.081Z,20.73
2024-01-11T11:30:28.589Z,25.45
2024-01-11T11:32:55.793Z,24.50
2024-01-11T11:35:24.711Z,22.27
2024-01-11T11:37:56.448Z,21.60
2024-01-11T11:40:23.083Z,21.67
2024-01-11T11:45:26.549Z,21.23
2024-01-11T11:47:53.133Z,29.58
2024-01-11T11:50:23.701Z,24.67
2024-01-11T11:52:57.060Z,23.45
2024-01-11T11:55:27.695Z,26.58
2024-01-11T11:57:54.241Z,21.83
2024-01-11T12:02:48.860Z,22.38
2024-01-11T12:05:17.558Z,24.63
2024-01-11T12:07:44.185Z,21.63
2024-01-11T12:10:11.350Z,28.48
2024-01-11T12:12:38.152Z,69.13
2024-01-11T12:15:06.213Z,27.13
2024-01-11T12:17:32.835Z,21.35
2024-01-11T12:19:59.386Z,27.45
2024-01-11T12:22:25.892Z,25.92
2024-01-11T12:27:21.497Z,20.73
2024-01-11T12:29:53.061Z,17.98
2024-01-11T12:32:25.304Z,23.65
2024-01-11T12:34:52.825Z,19.45
2024-01-11T12:37:19.335Z,18.83
2024-01-11T12:39:46.457Z,17.50
2024-01-11T12:42:14.033Z,18.88
2024-01-11T12:44:41.590Z,20.63
2024-01-11T12:47:08.898Z,21.73
2024-01-11T12:49:35.834Z,20.48
2024-01-11T12:52:02.367Z,20.95
2024-01-11T12:54:28.817Z,21.13
2024-01-11T12:56:55.364Z,26.25
2024-01-11T13:01:52.513Z,20.60
2024-01-11T13:06:45.650Z,20.42
2024-01-11T13:11:39.151Z,17.75
2024-01-11T13:16:34.910Z,16.83
2024-01-11T13:21:30.033Z,29.15
2024-01-11T13:23:58.007Z,22.95
2024-01-11T13:26:24.586Z,16.95
2024-01-11T13:28:53.285Z,18.40
2024-01-11T13:31:19.729Z,16.00
2024-01-11T13:33:46.202Z,19.75
2024-01-11T13:38:39.406Z,17.05
2024-01-11T13:41:09.399Z,16.13
2024-01-11T13:43:36.181Z,18.67
2024-01-11T13:46:05.595Z,17.20
2024-01-11T13:48:35.473Z,16.55
2024-01-11T13:51:04.783Z,17.80
2024-01-11T13:53:31.988Z,17.55
2024-01-11T13:55:58.440Z,20.23
2024-01-11T13:58:27.414Z,19.83
2024-01-11T14:00:55.491Z,21.50
2024-01-11T14:03:23.256Z,15.95
2024-01-11T14:05:50.017Z,21.25
2024-01-11T14:08:16.647Z,20.77
2024-01-11T14:13:24.080Z,18.17
2024-01-11T14:15:52.052Z,19.48
2024-01-11T14:18:20.116Z,17.92
2024-01-11T14:20:47.012Z,13.95
2024-01-11T14:23:13.683Z,17.33
2024-01-11T14:25:41.699Z,16.08
2024-01-11T14:28:09.072Z,17.75
2024-01-11T14:30:36.108Z,16.70
2024-01-11T14:33:02.666Z,15.88
2024-01-11T14:37:55.742Z,16.45
2024-01-11T14:40:24.399Z,15.23
2024-01-11T14:42:51.783Z,18.38
2024-01-11T14:45:18.520Z,14.43
2024-01-11T14:47:45.080Z,16.33
2024-01-11T14:50:12.405Z,14.43
2024-01-11T14:52:42.284Z,17.00
2024-01-11T14:55:10.631Z,16.80
2024-01-11T14:57:38.254Z,20.42
2024-01-11T15:00:05.578Z,15.95
2024-01-11T15:02:35.561Z,15.30
2024-01-11T15:07:28.640Z,15.75
2024-01-11T15:09:55.157Z,20.50
2024-01-11T15:14:51.864Z,17.42
2024-01-11T15:17:21.350Z,18.08
2024-01-11T15:19:48.704Z,16.42
2024-01-11T15:22:15.249Z,17.40
2024-01-11T15:27:10.352Z,17.23
2024-01-11T15:29:36.910Z,16.75
2024-01-11T15:32:03.553Z,14.88
2024-01-11T15:34:30.203Z,17.40
2024-01-11T15:36:57.007Z,15.43
2024-01-11T15:39:28.265Z,21.02
2024-01-11T15:41:57.957Z,14.45
2024-01-11T15:44:27.226Z,18.50
2024-01-11T15:46:53.893Z,17.05
2024-01-11T15:51:46.736Z,15.63
2024-01-11T15:54:14.222Z,15.88
2024-01-11T15:56:40.807Z,13.57
2024-01-11T16:01:50.702Z,13.65
2024-01-11T16:04:23.964Z,14.65
2024-01-11T16:06:50.703Z,19.20
2024-01-11T16:09:22.872Z,16.35
2024-01-11T16:11:52.068Z,21.42
2024-01-11T16:14:18.796Z,17.52
2024-01-11T16:19:12.138Z,18.23
2024-01-11T16:21:38.897Z,17.02
2024-01-11T16:26:32.174Z,16.90
2024-01-11T16:28:58.717Z,15.45
2024-01-11T16:33:51.674Z,15.48
2024-01-11T16:38:44.947Z,16.75
2024-01-11T16:41:12.236Z,15.20
2024-01-11T16:43:39.065Z,19.50
2024-01-11T16:46:08.556Z,17.98
2024-01-11T16:48:35.132Z,20.10
2024-01-11T16:51:04.498Z,19.45
2024-01-11T16:53:31.378Z,21.10
2024-01-11T16:55:57.921Z,16.90
2024-01-11T17:00:50.913Z,14.18
2024-01-11T17:03:17.516Z,20.55
2024-01-11T17:05:44.216Z,15.30
2024-01-11T17:08:10.821Z,17.38
2024-01-11T17:10:38.819Z,17.05
2024-01-11T17:13:05.435Z,16.83
2024-01-11T17:17:58.414Z,17.90
2024-01-11T17:20:25.080Z,22.27
2024-01-11T17:25:19.615Z,17.15
2024-01-11T17:30:12.588Z,16.40
2024-01-11T17:32:39.522Z,16.65
2024-01-11T17:35:07.186Z,17.35
2024-01-11T17:37:33.807Z,18.67
2024-01-11T17:42:26.823Z,22.05
2024-01-11T17:44:53.581Z,16.55
2024-01-11T17:47:20.344Z,17.63
2024-01-11T17:49:47.058Z,20.83
2024-01-11T17:52:16.251Z,22.10
2024-01-11T17:54:42.924Z,20.77
2024-01-11T17:57:09.381Z,18.73
2024-01-11T17:59:35.903Z,25.02
2024-01-11T18:04:30.139Z,17.85
2024-01-11T18:06:56.695Z,18.10
2024-01-11T18:09:23.284Z,21.35
2024-01-11T18:14:17.319Z,17.90
2024-01-11T18:19:14.496Z,16.75
2024-01-11T18:21:41.683Z,16.70
2024-01-11T18:24:08.214Z,17.33
2024-01-11T18:29:02.265Z,18.08
2024-01-11T18:31:28.682Z,17.65
2024-01-11T18:33:56.220Z,21.02
2024-01-11T18:36:24.042Z,23.45
2024-01-11T18:38:53.255Z,20.40
2024-01-11T18:41:24.773Z,20.13
2024-01-11T18:43:51.343Z,19.23
2024-01-11T18:46:17.922Z,18.45
2024-01-11T18:48:45.065Z,18.92
2024-01-11T18:51:11.885Z,22.42
2024-01-11T18:53:38.507Z,22.98
2024-01-11T18:56:13.271Z,29.67
2024-01-11T18:58:39.718Z,22.67
2024-01-11T19:01:09.540Z,30.25
2024-01-11T19:03:39.768Z,30.42
2024-01-11T19:06:07.914Z,25.83
2024-01-11T19:08:35.199Z,22.42
2024-01-11T19:11:01.731Z,23.27
2024-01-11T19:15:55.102Z,19.08
2024-01-11T19:18:21.675Z,25.85
2024-01-11T19:20:53.879Z,71.95
2024-01-11T19:23:27.842Z,59.53
2024-01-11T19:25:56.167Z,38.10
2024-01-11T19:28:22.803Z,31.10
2024-01-11T19:30:49.316Z,60.65
2024-01-11T19:35:45.237Z,24.27
2024-01-11T19:38:13.452Z,28.05
2024-01-11T19:40:43.138Z,23.40
2024-01-11T19:43:10.321Z,42.95
2024-01-11T19:45:37.135Z,44.28
2024-01-11T19:48:04.193Z,35.72
2024-01-11T19:50:32.175Z,41.33
2024-01-11T19:52:58.648Z,42.08
2024-01-11T19:57:51.671Z,19.13
2024-01-11T20:02:44.522Z,20.75
2024-01-11T20:07:37.668Z,22.63
2024-01-11T20:10:04.462Z,19.50
2024-01-11T20:12:30.965Z,18.13
2024-01-11T20:14:57.394Z,17.95
2024-01-11T20:19:52.396Z,19.67
2024-01-11T20:22:20.289Z,19.05
2024-01-11T20:24:47.038Z,23.95
2024-01-11T20:27:13.578Z,15.60
2024-01-11T20:29:41.190Z,21.05
2024-01-11T20:32:07.881Z,20.63
2024-01-11T20:34:35.020Z,19.40
2024-01-11T20:37:01.952Z,19.95
2024-01-11T20:39:28.349Z,19.80
2024-01-11T20:41:57.037Z,18.42
2024-01-11T20:44:23.913Z,18.17
2024-01-11T20:46:50.389Z,20.65
2024-01-11T20:51:46.712Z,18.23
2024-01-11T20:54:13.674Z,16.95
2024-01-11T20:56:46.081Z,19.20
2024-01-11T20:59:12.905Z,21.88
2024-01-11T21:01:40.640Z,19.05
2024-01-11T21:04:07.399Z,22.63
2024-01-11T21:06:34.095Z,22.65
2024-01-11T21:09:04.577Z,28.23
2024-01-11T21:11:38.474Z,26.90
2024-01-11T21:14:19.437Z,22.27
2024-01-11T21:16:46.991Z,28.45
2024-01-11T21:19:13.543Z,26.98
2024-01-11T21:21:44.999Z,23.92
2024-01-11T21:24:11.408Z,28.70
2024-01-11T21:29:18.001Z,21.35
2024-01-11T21:31:44.565Z,17.10
2024-01-11T21:36:37.681Z,20.88
2024-01-11T21:39:04.422Z,23.58
2024-01-11T21:41:34.756Z,22.73
2024-01-11T21:44:01.456Z,20.40
2024-01-11T21:46:28.449Z,24.90
2024-01-11T21:48:55.261Z,20.88
2024-01-11T21:51:21.864Z,24.13
2024-01-11T21:53:48.428Z,18.63
2024-01-11T21:56:14.938Z,21.75
2024-01-11T21:58:41.425Z,21.27
2024-01-11T22:03:37.160Z,25.52
2024-01-11T22:06:04.596Z,26.77
2024-01-11T22:08:31.516Z,22.65
2024-01-11T22:10:58.040Z,21.40
2024-01-11T22:15:50.709Z,22.38
2024-01-11T22:20:44.345Z,20.27
2024-01-11T22:23:10.988Z,20.15
2024-01-11T22:28:04.125Z,17.50
2024-01-11T22:30:30.790Z,21.05
2024-01-11T22:32:57.671Z,20.40
2024-01-11T22:35:24.245Z,17.00
2024-01-11T22:40:18.608Z,13.60
2024-01-11T22:42:45.138Z,16.92
2024-01-11T22:47:38.139Z,13.98
2024-01-11T22:50:05.297Z,14.65
2024-01-11T22:52:31.917Z,17.50
2024-01-11T22:57:24.696Z,11.68
2024-01-11T22:59:51.282Z,12.38
2024-01-11T23:02:17.847Z,13.98
2024-01-11T23:04:44.295Z,13.90
2024-01-11T23:09:37.734Z,14.77
2024-01-11T23:12:06.712Z,12.52
2024-01-11T23:14:33.449Z,14.55
2024-01-11T23:17:00.069Z,12.70
2024-01-11T23:19:27.849Z,10.98
2024-01-11T23:21:54.355Z,14.20
2024-01-11T23:26:47.122Z,13.43
2024-01-11T23:31:40.119Z,16.92
2024-01-11T23:34:06.684Z,16.23
2024-01-11T23:36:33.337Z,11.35
2024-01-11T23:38:59.745Z,14.02
2024-01-11T23:43:52.630Z,13.27
2024-01-11T23:48:45.659Z,13.13
2024-01-11T23:51:12.260Z,13.00
2024-01-11T23:53:38.786Z,14.95
2024-01-11T23:58:32.073Z,14.85
